Time;durP1;ratioP1;P1;durP2;ratioP2;P2;SDS_P1;SDS_P2;PMS_P1;PMS_P2;Temp;Humidity;BMP_temperature;BMP_pressure;BME280_temperature;BME280_humidity;BME280_pressure;Samples;Min_cycle;Max_cycle;Signal;HPM_P1;HPM_P2
2022/03/12 00:00:43;;;;;;;9.20;3.33;;;;;;;1.90;41.93;101478.78;6026355;28;20029;-73
2022/03/12 00:03:38;;;;;;;9.10;3.50;;;;;;;1.81;42.76;101489.66;6026134;28;20065;-72
2022/03/12 00:06:34;;;;;;;7.32;4.30;;;;;;;1.77;42.40;101477.63;6027109;28;20034;-73
2022/03/12 00:09:29;;;;;;;9.65;3.75;;;;;;;1.84;42.31;101465.97;6026678;28;20030;-69
2022/03/12 00:12:25;;;;;;;7.93;3.83;;;;;;;1.74;42.44;101490.84;6025795;28;20425;-70
2022/03/12 00:15:20;;;;;;;8.48;4.72;;;;;;;1.74;42.49;101480.38;6026439;28;20269;-71
2022/03/12 00:18:18;;;;;;;9.43;3.47;;;;;;;1.64;43.17;101482.59;6026693;28;20382;-71
2022/03/12 00:21:14;;;;;;;11.75;4.25;;;;;;;1.56;42.91;101473.41;6034324;28;20030;-72
2022/03/12 00:24:13;;;;;;;8.52;3.42;;;;;;;1.56;42.71;101476.88;6028720;28;20049;-71
2022/03/12 00:27:09;;;;;;;9.95;4.07;;;;;;;1.50;43.67;101476.28;6025863;28;20065;-72
2022/03/12 00:30:06;;;;;;;9.13;3.30;;;;;;;1.46;43.69;101483.44;6024305;28;20034;-70
2022/03/12 00:33:02;;;;;;;10.13;3.30;;;;;;;1.43;43.57;101477.50;6026451;28;20030;-70
2022/03/12 00:35:58;;;;;;;12.73;3.78;;;;;;;1.38;43.58;101475.09;6026110;28;20022;-69
2022/03/12 00:38:54;;;;;;;9.73;3.90;;;;;;;1.43;43.23;101480.09;6025916;28;20482;-69
2022/03/12 00:41:49;;;;;;;11.17;4.60;;;;;;;1.31;44.02;101478.03;6025136;28;20042;-72
2022/03/12 00:44:44;;;;;;;7.90;3.03;;;;;;;1.23;43.95;101475.75;6025908;28;20018;-71
2022/03/12 00:47:40;;;;;;;10.07;3.60;;;;;;;1.22;43.71;101481.06;6023789;28;20476;-72
2022/03/12 00:50:35;;;;;;;11.70;4.00;;;;;;;1.19;43.70;101482.06;6030308;28;20034;-69
2022/03/12 00:53:30;;;;;;;8.05;3.30;;;;;;;1.13;44.09;101470.13;6032851;28;20038;-72
2022/03/12 00:56:26;;;;;;;7.30;3.50;;;;;;;1.14;44.03;101468.34;6032783;28;20374;-70
2022/03/12 00:59:21;;;;;;;12.07;4.10;;;;;;;1.12;44.28;101478.84;6026165;28;20327;-72
2022/03/12 01:02:17;;;;;;;10.33;3.00;;;;;;;1.07;44.09;101470.38;6024940;28;20022;-72
2022/03/12 01:05:16;;;;;;;10.32;3.67;;;;;;;0.97;44.61;101474.31;6025431;28;20066;-73
2022/03/12 01:08:11;;;;;;;6.57;2.92;;;;;;;0.93;44.68;101472.72;6025947;28;20034;-70
2022/03/12 01:11:08;;;;;;;10.50;3.57;;;;;;;0.94;44.50;101471.84;6024314;28;20437;-71
2022/03/12 01:14:04;;;;;;;8.82;3.78;;;;;;;0.95;44.65;101476.13;6025193;28;20045;-70
2022/03/12 01:16:59;;;;;;;10.32;4.25;;;;;;;0.90;44.36;101457.19;6024983;28;20042;-69
2022/03/12 01:19:55;;;;;;;8.30;3.47;;;;;;;0.88;44.79;101472.09;6019538;28;20462;-71
2022/03/12 01:22:50;;;;;;;9.15;3.45;;;;;;;0.81;44.35;101468.06;6024825;28;20047;-72
2022/03/12 01:25:46;;;;;;;11.10;4.00;;;;;;;0.78;44.63;101473.41;6025684;28;20042;-70
2022/03/12 01:28:42;;;;;;;8.60;3.50;;;;;;;0.71;45.23;101466.72;6025361;28;20038;-70
2022/03/12 01:31:37;;;;;;;7.83;2.60;;;;;;;0.68;45.09;101469.47;6024723;28;20030;-72
2022/03/12 01:34:32;;;;;;;8.68;3.88;;;;;;;0.64;45.15;101470.53;6024982;28;20355;-70
2022/03/12 01:37:28;;;;;;;9.73;2.70;;;;;;;0.57;45.27;101458.66;6025365;28;20526;-72
2022/03/12 01:40:23;;;;;;;6.75;3.58;;;;;;;0.49;45.56;101460.75;6024909;28;20034;-72
2022/03/12 01:43:19;;;;;;;10.97;4.47;;;;;;;0.50;45.56;101459.81;6025511;28;20355;-72
2022/03/12 01:46:14;;;;;;;9.83;4.23;;;;;;;0.50;45.51;101462.41;6025299;28;20038;-72
2022/03/12 01:49:13;;;;;;;7.80;3.67;;;;;;;0.44;45.62;101460.06;6026810;28;20030;-72
2022/03/12 01:52:10;;;;;;;13.88;3.33;;;;;;;0.42;45.46;101454.91;6043538;28;20119;-74
2022/03/12 01:55:06;;;;;;;8.25;4.00;;;;;;;0.39;45.64;101457.66;6028124;28;20018;-72
2022/03/12 01:58:02;;;;;;;10.07;2.80;;;;;;;0.37;45.38;101462.09;6024896;28;20497;-70
2022/03/12 02:00:58;;;;;;;9.32;3.70;;;;;;;0.29;45.83;101447.66;6024746;28;20057;-70
2022/03/12 02:03:54;;;;;;;8.38;3.25;;;;;;;0.29;45.56;101453.75;6024638;28;20033;-73
2022/03/12 02:06:51;;;;;;;7.70;2.88;;;;;;;0.26;45.66;101460.81;6025057;28;20026;-70
2022/03/12 02:09:46;;;;;;;7.55;2.88;;;;;;;0.23;45.48;101448.75;6024913;28;20033;-71
2022/03/12 02:12:41;;;;;;;7.93;3.13;;;;;;;0.31;45.30;101445.84;6024533;28;20038;-71
2022/03/12 02:15:38;;;;;;;7.70;3.67;;;;;;;0.26;45.30;101447.78;6024657;28;20030;-70
2022/03/12 02:18:34;;;;;;;6.30;3.25;;;;;;;0.32;45.36;101447.53;6025434;28;20476;-72
2022/03/12 02:21:35;;;;;;;8.32;2.92;;;;;;;0.26;45.09;101437.34;6024459;28;20473;-70
2022/03/12 02:24:32;;;;;;;9.68;3.88;;;;;;;0.30;44.59;101436.34;6037265;28;20030;-72
2022/03/12 02:27:28;;;;;;;6.93;2.22;;;;;;;0.24;44.89;101431.38;6044603;28;20033;-71
2022/03/12 02:30:26;;;;;;;6.50;2.80;;;;;;;0.32;44.46;101430.16;6028975;28;20030;-70
2022/03/12 02:33:28;;;;;;;6.05;2.83;;;;;;;0.27;44.12;101428.63;6028789;28;20466;-71
2022/03/12 02:36:26;;;;;;;6.82;2.70;;;;;;;0.26;44.08;101427.78;6028856;28;20366;-73
2022/03/12 02:39:22;;;;;;;9.05;3.33;;;;;;;0.27;44.11;101428.63;6029173;28;20374;-71
2022/03/12 02:42:18;;;;;;;9.38;3.53;;;;;;;0.34;43.71;101424.84;6027872;28;20038;-71
2022/03/12 02:45:14;;;;;;;6.90;2.72;;;;;;;0.34;43.65;101423.09;6024622;28;20059;-71
2022/03/12 02:48:10;;;;;;;7.33;2.83;;;;;;;0.45;43.11;101414.81;6028315;28;20085;-69
2022/03/12 02:51:06;;;;;;;5.65;2.88;;;;;;;0.50;42.89;101412.84;6031627;28;20085;-69
2022/03/12 02:54:01;;;;;;;6.70;2.20;;;;;;;0.52;42.21;101395.38;6038327;28;20092;-69
2022/03/12 02:56:56;;;;;;;5.67;2.50;;;;;;;0.56;42.09;101399.56;6028308;28;20454;-73
2022/03/12 02:59:53;;;;;;;11.57;2.47;;;;;;;0.57;41.74;101398.66;6028309;28;20126;-71
2022/03/12 03:02:55;;;;;;;7.28;3.20;;;;;;;0.64;41.59;101389.63;6027431;28;20116;-70
2022/03/12 03:05:54;;;;;;;6.82;1.92;;;;;;;0.64;41.21;101394.84;6028056;28;20081;-72
2022/03/12 03:08:50;;;;;;;7.72;3.00;;;;;;;0.65;41.37;101401.78;6027768;28;20061;-70
2022/03/12 03:11:46;;;;;;;8.68;3.00;;;;;;;0.62;41.29;101408.88;6027636;28;20105;-72
2022/03/12 03:14:44;;;;;;;7.65;2.45;;;;;;;0.57;41.56;101415.13;6028127;28;20030;-73
2022/03/12 03:17:40;;;;;;;6.82;2.42;;;;;;;0.54;41.68;101406.59;6027376;28;20038;-71
2022/03/12 03:20:35;;;;;;;5.72;2.33;;;;;;;0.50;42.11;101405.03;6026756;28;20034;-73
2022/03/12 03:23:31;;;;;;;8.77;3.10;;;;;;;0.44;41.61;101411.34;6028139;28;20092;-72
2022/03/12 03:26:38;;;;;;;7.10;2.75;;;;;;;0.44;41.85;101413.97;6027484;28;20034;-73
2022/03/12 03:29:34;;;;;;;6.40;2.90;;;;;;;0.42;42.02;101412.34;6027447;28;20061;-69
2022/03/12 03:32:29;;;;;;;8.85;3.25;;;;;;;0.32;42.21;101416.25;6026112;28;20359;-71
2022/03/12 03:35:24;;;;;;;7.43;2.58;;;;;;;0.32;42.29;101416.25;6028115;28;20037;-71
2022/03/12 03:38:20;;;;;;;8.33;3.43;;;;;;;0.32;42.28;101408.44;6027535;28;20117;-73
2022/03/12 03:41:16;;;;;;;7.70;2.80;;;;;;;0.33;41.84;101417.94;6026128;28;20378;-70
2022/03/12 03:44:13;;;;;;;8.57;3.50;;;;;;;0.30;42.09;101412.88;6027569;28;20281;-70
2022/03/12 03:47:08;;;;;;;9.10;3.30;;;;;;;0.34;41.93;101424.84;6027117;28;20472;-69
2022/03/12 03:50:08;;;;;;;6.43;2.47;;;;;;;0.29;42.00;101424.19;6027295;28;20038;-70
2022/03/12 03:53:03;;;;;;;7.47;2.78;;;;;;;0.19;42.36;101415.06;6051162;28;20031;-70
2022/03/12 03:56:00;;;;;;;7.13;3.08;;;;;;;0.14;42.72;101416.97;6034350;28;20035;-69
2022/03/12 03:58:55;;;;;;;5.85;2.38;;;;;;;0.12;42.55;101419.66;6029589;28;20358;-72
2022/03/12 04:01:51;;;;;;;8.40;2.47;;;;;;;0.10;42.58;101420.66;6026258;28;20030;-70
2022/03/12 04:04:48;;;;;;;5.97;2.77;;;;;;;0.17;42.29;101422.94;6035989;28;20277;-72
2022/03/12 04:07:43;;;;;;;5.50;2.55;;;;;;;0.16;42.35;101425.63;6046331;28;20374;-72
2022/03/12 04:10:39;;;;;;;7.90;3.07;;;;;;;0.10;42.63;101425.84;6026612;28;20038;-72
2022/03/12 04:13:34;;;;;;;5.65;2.63;;;;;;;0.05;42.23;101423.44;6026897;28;20022;-70
2022/03/12 04:16:31;;;;;;;6.73;2.70;;;;;;;-0.04;42.76;101435.09;6026531;28;20038;-73
2022/03/12 04:19:29;;;;;;;7.60;2.80;;;;;;;-0.02;43.06;101437.63;6027386;28;20457;-72
2022/03/12 04:22:25;;;;;;;5.50;1.90;;;;;;;-0.14;43.32;101449.41;6030685;28;20034;-70
2022/03/12 04:25:20;;;;;;;7.82;2.92;;;;;;;-0.16;43.33;101447.75;6037248;28;20087;-71
2022/03/12 04:28:16;;;;;;;8.33;3.07;;;;;;;-0.21;43.85;101447.94;6048996;28;20037;-68
2022/03/12 04:31:11;;;;;;;6.80;2.83;;;;;;;-0.25;43.93;101456.78;6050026;28;20261;-71
2022/03/12 04:34:06;;;;;;;7.72;2.70;;;;;;;-0.35;44.42;101459.78;6030026;28;20065;-70
2022/03/12 04:37:03;;;;;;;6.03;2.17;;;;;;;-0.42;44.65;101472.22;6044572;28;20018;-71
2022/03/12 04:39:58;;;;;;;7.60;3.13;;;;;;;-0.51;44.98;101469.94;6026146;28;20038;-70
2022/03/12 04:42:54;;;;;;;5.77;3.07;;;;;;;-0.55;45.12;101470.97;6028135;28;20468;-70
2022/03/12 04:45:49;;;;;;;5.53;2.28;;;;;;;-0.63;45.86;101468.66;6023797;28;20022;-69
2022/03/12 04:48:45;;;;;;;8.47;2.63;;;;;;;-0.64;45.90;101474.75;6043839;28;20107;-71
2022/03/12 04:51:43;;;;;;;8.17;3.10;;;;;;;-0.78;46.27;101473.56;6025894;28;20274;-70
2022/03/12 04:54:39;;;;;;;10.52;2.13;;;;;;;-0.84;46.65;101487.63;6046779;28;20056;-70
2022/03/12 04:57:34;;;;;;;6.28;2.95;;;;;;;-0.89;46.72;101484.34;6033699;28;20466;-72
2022/03/12 05:00:31;;;;;;;4.67;1.90;;;;;;;-0.97;46.85;101488.13;6025689;28;20028;-68
2022/03/12 05:03:26;;;;;;;6.82;2.70;;;;;;;-0.98;47.06;101486.44;6025658;28;20105;-69
2022/03/12 05:06:23;;;;;;;7.37;2.87;;;;;;;-1.02;47.16;101484.84;6025994;28;20462;-69
2022/03/12 05:09:19;;;;;;;9.60;3.45;;;;;;;-1.03;47.70;101485.78;6026125;28;20732;-70
2022/03/12 05:12:15;;;;;;;7.25;2.65;;;;;;;-1.16;47.78;101490.53;6024796;28;20080;-71
2022/03/12 05:15:14;;;;;;;4.63;2.15;;;;;;;-1.21;48.42;101488.09;6025683;28;20065;-70
2022/03/12 05:18:12;;;;;;;8.18;2.90;;;;;;;-1.22;48.63;101498.53;6025108;28;20054;-68
2022/03/12 05:21:07;;;;;;;8.73;2.63;;;;;;;-1.28;48.52;101494.41;6039701;28;20038;-71
2022/03/12 05:24:03;;;;;;;11.05;2.90;;;;;;;-1.25;48.45;101501.28;6025421;28;20092;-71
2022/03/12 05:26:59;;;;;;;6.95;2.88;;;;;;;-1.33;48.62;101496.31;6025303;28;20081;-70
2022/03/12 05:29:54;;;;;;;6.22;2.40;;;;;;;-1.33;49.10;101498.91;6025311;28;20382;-70
2022/03/12 05:32:51;;;;;;;8.87;3.10;;;;;;;-1.37;49.18;101501.66;6024817;28;20033;-70
2022/03/12 05:35:51;;;;;;;5.78;2.75;;;;;;;-1.37;49.41;101496.47;6025492;28;20061;-69
2022/03/12 05:38:46;;;;;;;7.53;3.20;;;;;;;-1.40;49.65;101502.63;6024537;28;20046;-71
2022/03/12 05:41:44;;;;;;;4.30;2.20;;;;;;;-1.47;49.75;101501.09;6024805;28;20034;-71
2022/03/12 05:44:40;;;;;;;4.43;2.35;;;;;;;-1.44;49.66;101500.19;6025869;28;20041;-70
2022/03/12 05:47:37;;;;;;;5.50;2.38;;;;;;;-1.44;49.52;101495.81;6024801;28;20113;-69
2022/03/12 05:50:32;;;;;;;6.82;2.45;;;;;;;-1.40;49.47;101492.22;6024970;28;20034;-69
2022/03/12 05:53:32;;;;;;;4.20;2.27;;;;;;;-1.36;48.88;101500.78;6015822;28;20042;-69
2022/03/12 05:56:27;;;;;;;7.53;2.97;;;;;;;-1.35;49.32;101502.47;6039750;28;20036;-69
2022/03/12 05:59:23;;;;;;;6.72;2.30;;;;;;;-1.32;49.23;101510.16;6036001;28;20034;-69
2022/03/12 06:02:18;;;;;;;8.20;2.70;;;;;;;-1.30;49.00;101524.81;6028829;28;20041;-69
2022/03/12 06:05:14;;;;;;;9.37;3.57;;;;;;;-1.28;48.84;101523.00;6029709;28;20084;-69
2022/03/12 06:08:21;;;;;;;8.00;2.88;;;;;;;-1.22;48.99;101528.00;6029435;28;20045;-70
2022/03/12 06:11:17;;;;;;;5.35;2.33;;;;;;;-1.15;48.47;101528.66;6028547;28;20049;-69
2022/03/12 06:14:15;;;;;;;5.87;2.77;;;;;;;-1.14;48.38;101537.31;6029868;28;20377;-68
2022/03/12 06:17:12;;;;;;;7.60;2.78;;;;;;;-1.05;48.33;101540.44;6029164;28;20037;-69
2022/03/12 06:20:10;;;;;;;8.63;3.10;;;;;;;-1.03;48.44;101546.44;6028450;28;20092;-67
2022/03/12 06:23:05;;;;;;;6.22;2.70;;;;;;;-0.96;47.88;101544.50;6020480;28;20109;-67
2022/03/12 06:26:02;;;;;;;9.10;3.35;;;;;;;-0.79;47.70;101547.38;6033322;28;20030;-69
2022/03/12 06:28:58;;;;;;;17.80;2.97;;;;;;;-0.45;46.96;101545.25;6029130;28;20462;-68
2022/03/12 06:31:54;;;;;;;8.93;2.80;;;;;;;-0.20;45.86;101535.63;6028283;28;20034;-69
2022/03/12 06:34:49;;;;;;;7.13;2.67;;;;;;;0.04;45.13;101538.19;6028988;28;20562;-68
2022/03/12 06:37:45;;;;;;;5.78;2.78;;;;;;;0.26;43.76;101534.69;6043142;28;20025;-68
2022/03/12 06:40:41;;;;;;;6.38;3.03;;;;;;;0.15;43.61;101539.47;6038402;28;20030;-68
2022/03/12 06:43:42;;;;;;;5.03;2.05;;;;;;;0.34;43.44;101545.69;6028906;28;20907;-68
2022/03/12 06:46:37;;;;;;;20.23;3.80;;;;;;;0.44;43.11;101540.94;6029373;28;20037;-71
2022/03/12 06:49:33;;;;;;;8.40;2.90;;;;;;;0.66;43.14;101546.97;6033358;28;20042;-69
2022/03/12 06:52:28;;;;;;;7.27;3.00;;;;;;;0.71;41.98;101545.03;6029508;28;20381;-73
2022/03/12 06:55:27;;;;;;;7.70;3.35;;;;;;;0.81;42.36;101550.72;6048926;28;20101;-71
2022/03/12 06:58:24;;;;;;;6.75;3.30;;;;;;;1.02;42.33;101550.69;6045119;28;20473;-71
2022/03/12 07:01:19;;;;;;;4.85;2.28;;;;;;;1.23;41.76;101548.91;6043983;28;20029;-69
2022/03/12 07:04:14;;;;;;;8.37;2.97;;;;;;;1.24;41.73;101550.59;6028229;28;20034;-71
2022/03/12 07:07:10;;;;;;;8.65;2.60;;;;;;;1.34;41.50;101556.25;6028811;28;20106;-73
2022/03/12 07:10:06;;;;;;;8.40;2.77;;;;;;;1.42;40.91;101554.16;6028053;28;20069;-70
2022/03/12 07:13:02;;;;;;;8.05;2.97;;;;;;;1.49;40.97;101553.84;6028474;28;20268;-70
2022/03/12 07:15:57;;;;;;;6.72;3.05;;;;;;;1.55;41.71;101557.97;6027923;28;20030;-70
2022/03/12 07:18:53;;;;;;;6.88;3.05;;;;;;;1.67;41.56;101549.56;6027520;28;20120;-68
2022/03/12 07:21:49;;;;;;;7.57;2.83;;;;;;;1.67;40.80;101560.88;6027863;28;20081;-70
2022/03/12 07:24:44;;;;;;;11.10;2.67;;;;;;;1.79;39.94;101555.06;6027553;28;20269;-72
2022/03/12 07:27:40;;;;;;;8.00;2.90;;;;;;;2.11;39.37;101565.81;6027683;28;20465;-70
2022/03/12 07:30:35;;;;;;;3.22;1.58;;;;;;;2.23;39.38;101562.63;6035705;28;20036;-71
2022/03/12 07:33:31;;;;;;;6.63;2.63;;;;;;;2.36;38.41;101569.81;6028539;28;20031;-72
2022/03/12 07:36:26;;;;;;;6.28;2.47;;;;;;;2.39;38.16;101571.47;6034613;28;20034;-71
2022/03/12 07:39:22;;;;;;;7.13;2.70;;;;;;;2.44;38.12;101566.88;6027292;28;20116;-71
2022/03/12 07:42:17;;;;;;;7.30;2.80;;;;;;;2.63;37.82;101572.06;6026775;28;20076;-69
2022/03/12 07:45:13;;;;;;;4.88;1.90;;;;;;;2.56;37.25;101563.63;6043634;28;20296;-69
2022/03/12 07:48:09;;;;;;;6.10;2.70;;;;;;;2.46;37.99;101564.16;6031579;28;20026;-73
2022/03/12 07:51:05;;;;;;;6.43;2.75;;;;;;;2.45;37.50;101565.09;6029976;28;20490;-70
2022/03/12 07:54:06;;;;;;;8.07;2.35;;;;;;;2.47;38.15;101563.25;6032461;28;20041;-75
2022/03/12 07:57:01;;;;;;;9.57;3.33;;;;;;;2.48;38.41;101575.38;6031991;28;20065;-70
2022/03/12 07:59:57;;;;;;;7.90;2.33;;;;;;;2.43;38.25;101575.63;6035076;28;20032;-72
2022/03/12 08:02:53;;;;;;;5.30;2.40;;;;;;;2.55;37.69;101582.03;6029811;28;20524;-73
2022/03/12 08:05:49;;;;;;;7.60;3.17;;;;;;;2.67;38.35;101576.19;6030601;28;20040;-72
2022/03/12 08:08:44;;;;;;;6.45;2.22;;;;;;;2.88;37.96;101570.75;6027248;28;20455;-70
2022/03/12 08:11:40;;;;;;;5.65;2.58;;;;;;;2.95;38.14;101576.56;6026558;28;20030;-69
2022/03/12 08:14:35;;;;;;;5.27;2.40;;;;;;;3.10;38.16;101575.78;6026980;28;20506;-69
2022/03/12 08:17:31;;;;;;;7.37;3.07;;;;;;;3.30;37.71;101588.72;6047142;28;20178;-69
2022/03/12 08:20:26;;;;;;;8.07;3.50;;;;;;;3.50;37.59;101580.69;6049733;28;20117;-73
2022/03/12 08:23:22;;;;;;;7.10;3.00;;;;;;;3.73;37.61;101570.75;6050620;28;20052;-73
2022/03/12 08:26:18;;;;;;;7.20;3.08;;;;;;;3.86;36.80;101572.63;6032757;28;20392;-71
2022/03/12 08:29:15;;;;;;;9.00;3.08;;;;;;;3.60;36.70;101584.53;6026656;28;20041;-70
2022/03/12 08:32:11;;;;;;;16.33;3.20;;;;;;;3.70;36.48;101586.63;6026124;28;20041;-74
2022/03/12 08:35:09;;;;;;;6.32;2.83;;;;;;;3.91;36.61;101577.66;6026965;28;20042;-71
2022/03/12 08:38:04;;;;;;;6.57;2.88;;;;;;;3.77;36.25;101573.16;6026664;28;20113;-70
2022/03/12 08:41:05;;;;;;;4.87;2.50;;;;;;;3.55;36.81;101568.19;6024434;28;20026;-73
2022/03/12 08:44:01;;;;;;;7.50;2.55;;;;;;;3.71;36.18;101572.59;6025340;28;20034;-70
2022/03/12 08:46:56;;;;;;;6.07;3.13;;;;;;;3.95;37.23;101576.53;6026148;28;20476;-71
2022/03/12 08:49:51;;;;;;;7.97;2.80;;;;;;;4.36;36.00;101566.41;6026442;28;20544;-72
2022/03/12 08:52:47;;;;;;;5.53;2.53;;;;;;;4.45;35.41;101569.38;6025337;28;20664;-70
2022/03/12 08:55:42;;;;;;;6.65;2.65;;;;;;;4.62;34.77;101574.50;6026551;28;20369;-74
2022/03/12 08:58:39;;;;;;;6.72;2.72;;;;;;;4.78;35.28;101569.25;6039142;28;20030;-72
2022/03/12 09:01:34;;;;;;;7.07;3.03;;;;;;;5.15;34.47;101567.94;6038704;28;20030;-69
2022/03/12 09:04:29;;;;;;;6.70;2.58;;;;;;;5.41;33.11;101554.06;6026275;28;20409;-71
2022/03/12 09:07:25;;;;;;;5.50;2.63;;;;;;;5.37;33.98;101563.09;6026152;28;20034;-72
2022/03/12 09:10:21;;;;;;;7.00;3.50;;;;;;;5.36;33.09;101561.41;6025758;28;20281;-69
2022/03/12 09:13:18;;;;;;;6.50;2.80;;;;;;;5.73;33.33;101555.63;6037869;28;20048;-69
2022/03/12 09:16:14;;;;;;;9.40;3.03;;;;;;;5.54;32.73;101552.41;6049656;28;20037;-72
2022/03/12 09:19:10;;;;;;;6.35;2.60;;;;;;;5.70;33.39;101549.69;6049737;28;20022;-70
2022/03/12 09:22:06;;;;;;;8.77;3.00;;;;;;;6.20;33.21;101538.63;6048981;28;20172;-71
2022/03/12 09:25:02;;;;;;;5.28;2.33;;;;;;;6.36;32.37;101544.66;6046395;28;20069;-72
2022/03/12 09:27:59;;;;;;;6.70;2.40;;;;;;;6.43;31.80;101541.50;6026120;28;20038;-73
2022/03/12 09:30:55;;;;;;;7.00;2.50;;;;;;;6.48;32.77;101538.56;6027354;28;20038;-72
2022/03/12 09:33:50;;;;;;;8.15;2.95;;;;;;;6.84;31.08;101551.13;6030907;28;20026;-74
2022/03/12 09:36:45;;;;;;;8.57;2.87;;;;;;;6.83;31.93;101539.72;6030623;28;20038;-71
2022/03/12 09:39:41;;;;;;;7.00;3.37;;;;;;;7.11;31.75;101546.66;6030816;28;20467;-71
2022/03/12 09:42:37;;;;;;;6.10;2.55;;;;;;;7.24;31.23;101550.13;6029540;28;20130;-71
2022/03/12 09:45:32;;;;;;;6.90;3.25;;;;;;;7.34;31.00;101555.66;6030276;28;20410;-72
2022/03/12 09:48:28;;;;;;;7.13;3.13;;;;;;;7.67;30.64;101548.03;6030506;28;20488;-72
2022/03/12 09:51:25;;;;;;;6.70;2.60;;;;;;;7.38;30.25;101541.28;6029566;28;20061;-70
2022/03/12 09:54:22;;;;;;;21.15;10.68;;;;;;;7.70;30.78;101531.97;6030384;28;20121;-70
2022/03/12 09:57:18;;;;;;;7.38;2.90;;;;;;;7.53;30.42;101532.28;6030108;28;20480;-72
2022/03/12 10:00:14;;;;;;;6.82;3.22;;;;;;;7.48;31.28;101518.56;6039017;28;20034;-74
2022/03/12 10:03:10;;;;;;;6.43;2.97;;;;;;;7.48;30.62;101521.22;6029853;28;20037;-72
2022/03/12 10:06:06;;;;;;;8.57;3.15;;;;;;;7.71;29.87;101513.41;6029919;28;20037;-73
2022/03/12 10:09:03;;;;;;;5.50;2.73;;;;;;;8.08;30.81;101516.03;6030069;28;20370;-72
2022/03/12 10:11:59;;;;;;;7.10;2.47;;;;;;;8.34;29.23;101515.88;6029021;28;20036;-71
2022/03/12 10:14:54;;;;;;;6.03;2.78;;;;;;;8.69;29.40;101502.72;6029616;28;20466;-71
2022/03/12 10:17:49;;;;;;;7.00;2.40;;;;;;;8.45;28.67;101496.63;6029877;28;20026;-73
2022/03/12 10:20:44;;;;;;;7.80;3.30;;;;;;;8.38;28.97;101498.84;6028895;28;20026;-71
2022/03/12 10:23:40;;;;;;;7.93;3.17;;;;;;;8.77;29.11;101497.69;6029268;28;20062;-71
2022/03/12 10:26:35;;;;;;;7.30;3.37;;;;;;;9.05;29.00;101492.97;6024887;28;20141;-70
2022/03/12 10:29:31;;;;;;;8.05;2.63;;;;;;;9.32;28.65;101496.97;6021390;28;20030;-71
2022/03/12 10:32:32;;;;;;;6.80;2.72;;;;;;;9.31;28.09;101490.00;6025961;28;20037;-71
2022/03/12 10:35:37;;;;;;;5.60;2.72;;;;;;;9.42;28.18;101487.38;6027934;28;20029;-74
2022/03/12 10:38:43;;;;;;;6.80;3.03;;;;;;;9.13;28.41;101487.94;6028189;28;20532;-75
2022/03/12 10:41:39;;;;;;;6.32;2.92;;;;;;;9.32;28.62;101486.38;6027064;28;20462;-71
2022/03/12 10:44:39;;;;;;;5.32;2.92;;;;;;;9.55;27.71;101489.88;6027875;28;20024;-74
2022/03/12 10:47:42;;;;;;;7.28;3.30;;;;;;;9.78;28.03;101490.72;6027635;28;20378;-71
2022/03/12 10:50:43;;;;;;;9.27;3.15;;;;;;;9.89;28.33;101485.41;6026976;28;20121;-70
2022/03/12 10:53:40;;;;;;;4.55;2.65;;;;;;;9.76;27.25;101474.09;6027748;28;20378;-71
2022/03/12 10:56:43;;;;;;;6.18;3.03;;;;;;;9.29;27.46;101465.47;6027368;28;20019;-74
2022/03/12 10:59:39;;;;;;;5.60;2.47;;;;;;;9.39;27.34;101477.00;6032214;28;20120;-72
2022/03/12 11:02:34;;;;;;;7.70;3.17;;;;;;;9.47;27.60;101479.91;6037955;28;20568;-73
2022/03/12 11:05:35;;;;;;;6.10;2.90;;;;;;;9.72;27.91;101472.66;6026748;28;20084;-75
2022/03/12 11:08:32;;;;;;;6.50;2.85;;;;;;;9.92;27.08;101485.19;6026842;28;20041;-71
2022/03/12 11:11:29;;;;;;;6.82;3.05;;;;;;;9.89;27.45;101490.72;6026427;28;20042;-71
2022/03/12 11:14:24;;;;;;;6.20;3.22;;;;;;;9.77;27.58;101486.38;6026292;28;20026;-73
2022/03/12 11:17:19;;;;;;;7.87;2.83;;;;;;;10.24;27.22;101485.25;6027408;28;20089;-70
2022/03/12 11:20:28;;;;;;;8.33;3.50;;;;;;;10.04;27.00;101492.13;6026188;28;20364;-71
2022/03/12 11:23:27;;;;;;;6.53;2.97;;;;;;;10.00;27.31;101472.97;5983579;28;1006365;-72
2022/03/12 11:26:24;;;;;;;5.25;2.70;;;;;;;10.01;27.67;101492.38;6048713;28;20045;-74
2022/03/12 11:29:22;;;;;;;8.85;3.20;;;;;;;10.11;27.13;101494.16;6028127;28;20054;-70
2022/03/12 11:32:18;;;;;;;7.00;3.10;;;;;;;10.52;26.67;101477.53;6027178;28;20114;-71
2022/03/12 11:35:18;;;;;;;7.53;3.20;;;;;;;10.56;26.47;101476.34;6046707;28;20071;-71
2022/03/12 11:38:21;;;;;;;8.50;3.25;;;;;;;10.42;26.23;101473.97;6035580;28;20024;-71
2022/03/12 11:41:26;;;;;;;6.75;3.22;;;;;;;10.42;26.37;101471.34;6027568;28;20084;-69
2022/03/12 11:44:21;;;;;;;6.65;3.13;;;;;;;10.74;26.40;101466.84;6041188;28;20100;-73
2022/03/12 11:47:19;;;;;;;8.03;3.50;;;;;;;10.87;26.35;101457.88;6041294;28;20030;-71
2022/03/12 11:50:18;;;;;;;6.60;3.13;;;;;;;10.85;26.79;101451.81;6026887;28;20269;-71
2022/03/12 11:53:16;;;;;;;5.88;2.97;;;;;;;11.05;26.52;101445.69;6034151;28;20056;-70
2022/03/12 11:56:16;;;;;;;6.53;3.20;;;;;;;11.18;26.36;101443.66;6039298;28;20038;-73
2022/03/12 11:59:12;;;;;;;7.97;3.65;;;;;;;10.88;26.46;101443.59;6027578;28;20501;-71
2022/03/12 12:02:16;;;;;;;8.10;3.78;;;;;;;11.11;26.77;101435.38;6034680;28;20033;-72
2022/03/12 12:05:13;;;;;;;9.05;3.80;;;;;;;11.43;26.56;101429.94;6026818;28;20026;-74
2022/03/12 12:08:08;;;;;;;11.35;3.42;;;;;;;11.55;26.84;101434.16;6023831;28;20034;-74
2022/03/12 12:11:03;;;;;;;8.70;3.88;;;;;;;11.27;26.88;101424.28;6023172;28;20041;-70
2022/03/12 12:13:59;;;;;;;7.03;3.40;;;;;;;11.59;26.85;101419.66;6026810;28;20457;-72
2022/03/12 12:16:57;;;;;;;6.73;3.83;;;;;;;11.67;26.47;101421.63;6027038;28;20470;-73
2022/03/12 12:19:53;;;;;;;6.25;3.28;;;;;;;11.79;26.55;101410.78;6027217;28;20026;-72
2022/03/12 12:22:49;;;;;;;9.93;3.70;;;;;;;11.83;27.01;101406.03;6025902;28;20041;-72
2022/03/12 12:25:45;;;;;;;6.90;3.20;;;;;;;12.10;26.63;101397.38;6034218;28;20413;-72
2022/03/12 12:28:51;;;;;;;7.13;3.50;;;;;;;12.02;26.26;101398.09;6035564;28;20454;-74
2022/03/12 12:31:46;;;;;;;6.75;4.18;;;;;;;11.89;26.65;101402.81;6026000;28;20038;-72
2022/03/12 12:35:04;;;;;;;9.20;3.90;;;;;;;12.14;26.67;101394.31;6026867;28;20030;-72
2022/03/12 12:38:04;;;;;;;6.55;3.30;;;;;;;11.99;26.20;101394.84;6026161;28;20300;-70
2022/03/12 12:41:03;;;;;;;;;;;;;;;12.33;26.69;101396.16;6026466;28;20488;-72
2022/03/12 12:44:06;;;;;;;7.50;3.78;;;;;;;12.07;26.96;101397.66;6026022;28;19916;-71
2022/03/12 12:47:03;;;;;;;7.72;3.60;;;;;;;12.15;26.57;101398.63;6026221;28;20378;-72
2022/03/12 12:49:58;;;;;;;6.35;3.45;;;;;;;12.53;27.11;101384.50;6026289;28;20379;-73
2022/03/12 12:53:28;;;;;;;6.35;3.00;;;;;;;12.59;26.44;101386.59;6024238;28;20022;-73
2022/03/12 12:56:31;;;;;;;7.85;3.67;;;;;;;12.76;26.02;101385.03;6025657;28;20029;-75
2022/03/12 12:59:38;;;;;;;7.75;4.03;;;;;;;12.19;26.04;101369.97;6026183;28;20041;-73
2022/03/12 13:02:42;;;;;;;8.38;4.45;;;;;;;12.44;26.13;101370.25;6030117;28;20034;-73
2022/03/12 13:05:53;;;;;;;6.93;3.08;;;;;;;12.42;25.50;101374.00;6028394;28;20069;-71
2022/03/12 13:08:48;;;;;;;9.65;3.80;;;;;;;12.17;26.14;101380.75;6027878;28;20105;-72
2022/03/12 13:11:47;;;;;;;7.20;3.53;;;;;;;12.12;26.46;101382.16;6025065;28;20042;-73
2022/03/12 13:14:44;;;;;;;12.45;3.85;;;;;;;12.20;26.32;101371.66;6033898;28;20120;-71
2022/03/12 13:17:40;;;;;;;10.00;4.15;;;;;;;12.14;26.31;101362.41;6024936;28;20034;-72
2022/03/12 13:20:41;;;;;;;6.57;3.58;;;;;;;12.32;26.50;101365.19;6024707;28;20494;-73
2022/03/12 13:23:45;;;;;;;7.80;3.53;;;;;;;12.40;26.04;101357.34;6029507;28;20029;-71
2022/03/12 13:26:44;;;;;;;8.93;4.32;;;;;;;12.68;26.07;101364.44;6024386;28;20046;-72
2022/03/12 13:29:39;;;;;;;7.47;4.07;;;;;;;12.46;25.70;101356.78;6025161;28;20466;-71
2022/03/12 13:32:35;;;;;;;8.23;4.45;;;;;;;12.33;26.05;101364.22;6024535;28;20065;-73
2022/03/12 13:35:30;;;;;;;7.37;3.77;;;;;;;12.26;25.99;101360.44;6025625;28;20037;-71
2022/03/12 13:38:26;;;;;;;7.30;3.53;;;;;;;12.44;26.12;101358.75;6038003;28;20273;-74
2022/03/12 13:41:22;;;;;;;7.70;3.70;;;;;;;12.46;26.43;101359.44;6027538;28;20029;-70
2022/03/12 13:44:20;;;;;;;7.63;3.35;;;;;;;12.36;26.20;101355.97;6032977;28;20517;-71
2022/03/12 13:47:17;;;;;;;9.07;3.72;;;;;;;12.23;26.17;101347.44;6025375;28;20042;-72